createdAt,value
2018-09-25T00:00:08.375Z,9.60
2018-09-25T00:02:35.715Z,9.60
2018-09-25T00:05:03.067Z,9.60
2018-09-25T00:07:30.470Z,9.50
2018-09-25T00:09:57.782Z,9.40
2018-09-25T00:12:25.129Z,9.40
2018-09-25T00:14:52.459Z,9.40
2018-09-25T00:17:19.792Z,9.50
2018-09-25T00:19:47.095Z,9.60
2018-09-25T00:22:14.443Z,9.40
2018-09-25T00:24:41.768Z,9.30
2018-09-25T00:27:09.241Z,9.30
2018-09-25T00:29:36.575Z,9.20
2018-09-25T00:32:03.879Z,9.20
2018-09-25T00:34:31.215Z,9.20
2018-09-25T00:36:58.516Z,9.20
2018-09-25T00:39:25.850Z,9.20
2018-09-25T00:41:53.172Z,9.10
2018-09-25T00:44:20.488Z,9.10
2018-09-25T00:46:47.818Z,9.10
2018-09-25T00:49:15.136Z,9.00
2018-09-25T00:51:42.459Z,8.90
2018-09-25T00:54:09.786Z,8.90
2018-09-25T00:56:37.087Z,8.80
2018-09-25T00:59:04.416Z,8.70
2018-09-25T01:01:31.812Z,8.70
2018-09-25T01:03:59.123Z,8.70
2018-09-25T01:06:26.428Z,8.70
2018-09-25T01:08:53.747Z,8.70
2018-09-25T01:11:21.381Z,8.70
2018-09-25T01:13:48.687Z,8.70
2018-09-25T01:16:16.015Z,8.60
2018-09-25T01:18:43.388Z,8.70
2018-09-25T01:21:10.790Z,8.70
2018-09-25T01:23:38.122Z,8.70
2018-09-25T01:26:05.489Z,8.70
2018-09-25T01:28:32.919Z,8.60
2018-09-25T01:31:00.256Z,8.60
2018-09-25T01:33:27.579Z,8.60
2018-09-25T01:35:54.905Z,8.50
2018-09-25T01:38:22.213Z,8.40
2018-09-25T01:40:49.532Z,8.30
2018-09-25T01:43:16.912Z,8.20
2018-09-25T01:45:44.271Z,8.20
2018-09-25T01:48:11.603Z,8.20
2018-09-25T01:50:38.946Z,8.20
2018-09-25T01:53:06.249Z,8.10
2018-09-25T01:55:33.573Z,8.00
2018-09-25T01:58:00.908Z,8.00
2018-09-25T02:00:28.218Z,8.00
2018-09-25T02:02:55.547Z,8.00
2018-09-25T02:05:22.853Z,8.10
2018-09-25T02:07:50.192Z,8.10
2018-09-25T02:10:17.513Z,8.10
2018-09-25T02:12:44.846Z,8.10
2018-09-25T02:15:12.170Z,8.20
2018-09-25T02:17:39.505Z,8.10
2018-09-25T02:20:06.823Z,8.00
2018-09-25T02:22:34.139Z,8.00
2018-09-25T02:25:01.471Z,7.90
2018-09-25T02:27:28.792Z,7.90
2018-09-25T02:29:56.143Z,7.90
2018-09-25T02:32:23.462Z,7.90
2018-09-25T02:34:50.794Z,8.00
2018-09-25T02:37:18.123Z,8.00
2018-09-25T02:39:45.457Z,8.00
2018-09-25T02:42:12.755Z,8.20
2018-09-25T02:44:40.116Z,8.20
2018-09-25T02:47:07.392Z,8.30
2018-09-25T02:49:34.755Z,8.30
2018-09-25T02:52:02.048Z,8.20
2018-09-25T02:54:29.366Z,8.30
2018-09-25T02:56:56.716Z,8.40
2018-09-25T02:59:24.028Z,8.30
2018-09-25T03:01:51.351Z,8.30
2018-09-25T03:04:18.684Z,8.30
2018-09-25T03:06:46.023Z,8.30
2018-09-25T03:09:13.348Z,8.30
2018-09-25T03:11:40.789Z,8.30
2018-09-25T03:14:08.541Z,8.30
2018-09-25T03:16:35.875Z,8.30
2018-09-25T03:19:03.229Z,8.20
2018-09-25T03:21:30.540Z,8.20
2018-09-25T03:23:57.946Z,8.30
2018-09-25T03:26:25.243Z,8.20
2018-09-25T03:28:52.558Z,8.10
2018-09-25T03:31:19.898Z,7.90
2018-09-25T03:33:47.215Z,8.00
2018-09-25T03:36:24.771Z,7.80
2018-09-25T03:38:52.123Z,7.70
2018-09-25T03:41:19.440Z,7.70
2018-09-25T03:43:46.811Z,7.60
2018-09-25T03:46:14.116Z,7.60
2018-09-25T03:48:41.442Z,7.70
2018-09-25T03:51:08.777Z,8.00
2018-09-25T03:53:36.140Z,7.70
2018-09-25T03:56:03.457Z,7.60
2018-09-25T03:58:30.770Z,7.60
2018-09-25T04:00:58.138Z,7.70
2018-09-25T04:03:25.424Z,7.70
2018-09-25T04:05:52.811Z,7.70
2018-09-25T04:08:20.122Z,7.50
2018-09-25T04:10:47.435Z,7.50
2018-09-25T04:13:14.778Z,7.50
2018-09-25T04:15:42.125Z,7.40
2018-09-25T04:18:09.443Z,7.40
2018-09-25T04:20:36.791Z,7.50
2018-09-25T04:23:04.125Z,7.50
2018-09-25T04:25:31.441Z,7.50
2018-09-25T04:27:58.787Z,7.60
2018-09-25T04:30:26.139Z,7.70
2018-09-25T04:32:53.440Z,7.80
2018-09-25T04:35:20.762Z,7.90
2018-09-25T04:37:48.094Z,7.90
2018-09-25T04:40:15.431Z,7.90
2018-09-25T04:42:42.734Z,8.00
2018-09-25T04:45:10.089Z,7.90
2018-09-25T04:47:37.553Z,7.80
2018-09-25T04:50:05.054Z,7.90
2018-09-25T04:52:32.391Z,7.90
2018-09-25T04:54:59.706Z,8.00
2018-09-25T04:57:27.044Z,8.00
2018-09-25T04:59:54.331Z,8.10
2018-09-25T05:02:21.647Z,8.00
2018-09-25T05:04:48.957Z,7.80
2018-09-25T05:07:16.291Z,7.70
2018-09-25T05:09:43.634Z,7.70
2018-09-25T05:12:11.013Z,7.60
2018-09-25T05:14:38.307Z,7.80
2018-09-25T05:17:06.157Z,8.00
2018-09-25T05:19:33.462Z,7.90
2018-09-25T05:22:00.844Z,8.00
2018-09-25T05:24:28.183Z,8.00
2018-09-25T05:26:55.525Z,8.00
2018-09-25T05:29:22.859Z,8.00
2018-09-25T05:31:50.199Z,8.00
2018-09-25T05:34:17.526Z,8.10
2018-09-25T05:39:17.852Z,8.00
2018-09-25T05:41:45.174Z,7.90
2018-09-25T05:44:12.526Z,7.90
2018-09-25T05:46:39.851Z,8.10
2018-09-25T05:49:07.167Z,7.90
2018-09-25T05:51:34.555Z,7.80
2018-09-25T05:54:01.934Z,7.80
2018-09-25T05:56:29.238Z,7.80
2018-09-25T05:58:56.573Z,7.80
2018-09-25T06:01:23.916Z,8.00
2018-09-25T06:03:51.227Z,8.00
2018-09-25T06:06:18.527Z,7.80
2018-09-25T06:08:45.900Z,7.80
2018-09-25T06:11:13.235Z,7.80
2018-09-25T06:13:40.592Z,7.90
2018-09-25T06:16:07.929Z,8.00
2018-09-25T06:18:35.287Z,8.10
2018-09-25T06:21:02.608Z,8.10
2018-09-25T06:23:29.909Z,8.30
2018-09-25T06:25:57.267Z,8.30
2018-09-25T06:28:24.597Z,8.40
2018-09-25T06:30:51.931Z,8.50
2018-09-25T06:33:19.277Z,8.60
2018-09-25T06:35:46.610Z,8.60
2018-09-25T06:38:13.954Z,8.70
2018-09-25T06:40:41.315Z,8.70
2018-09-25T06:43:08.578Z,8.80
2018-09-25T06:45:35.913Z,8.90
2018-09-25T06:48:03.371Z,9.00
2018-09-25T06:50:30.732Z,9.10
2018-09-25T06:52:58.045Z,9.20
2018-09-25T06:55:25.351Z,9.30
2018-09-25T06:57:53.270Z,9.40
2018-09-25T07:00:20.839Z,9.40
2018-09-25T07:02:48.150Z,9.50
2018-09-25T07:05:15.469Z,9.60
2018-09-25T07:07:42.827Z,9.70
2018-09-25T07:10:10.292Z,9.70
2018-09-25T07:12:37.508Z,9.80
2018-09-25T07:15:04.839Z,9.80
2018-09-25T07:17:32.220Z,9.90
2018-09-25T07:19:59.487Z,9.90
2018-09-25T07:22:26.844Z,9.90
2018-09-25T07:24:54.229Z,10.00
2018-09-25T07:27:21.531Z,10.00
2018-09-25T07:29:48.911Z,10.10
2018-09-25T07:32:16.291Z,10.20
2018-09-25T07:34:43.632Z,10.30
2018-09-25T07:37:10.963Z,10.40
2018-09-25T07:39:38.367Z,10.40
2018-09-25T07:42:05.633Z,10.50
2018-09-25T07:44:32.969Z,10.50
2018-09-25T07:47:00.279Z,10.60
2018-09-25T07:49:27.599Z,10.50
2018-09-25T07:51:54.919Z,10.60
2018-09-25T07:54:22.248Z,10.60
2018-09-25T07:56:49.597Z,10.60
2018-09-25T07:59:16.886Z,10.80
2018-09-25T08:01:44.212Z,10.90
2018-09-25T08:04:11.520Z,11.00
2018-09-25T08:06:38.854Z,11.10
2018-09-25T08:09:07.551Z,11.20
2018-09-25T08:11:34.855Z,11.30
2018-09-25T08:14:02.199Z,11.40
2018-09-25T08:16:29.571Z,11.40
2018-09-25T08:18:56.903Z,11.40
2018-09-25T08:21:24.238Z,11.50
2018-09-25T08:23:51.548Z,11.60
2018-09-25T08:26:18.884Z,11.60
2018-09-25T08:28:46.268Z,11.60
2018-09-25T08:31:14.223Z,11.80
2018-09-25T08:33:41.560Z,11.80
2018-09-25T08:36:08.938Z,11.90
2018-09-25T08:38:36.428Z,11.90
2018-09-25T08:41:03.723Z,12.00
2018-09-25T08:43:31.051Z,12.10
2018-09-25T08:45:58.419Z,12.20
2018-09-25T08:48:25.691Z,12.20
2018-09-25T08:50:52.997Z,12.30
2018-09-25T08:53:20.331Z,12.40
2018-09-25T08:55:47.639Z,12.40
2018-09-25T08:58:14.988Z,12.50
2018-09-25T09:00:42.282Z,12.50
2018-09-25T09:03:09.616Z,12.50
2018-09-25T09:05:36.948Z,12.40
2018-09-25T09:08:04.270Z,12.40
2018-09-25T09:10:31.595Z,12.40
2018-09-25T09:12:58.931Z,12.30
2018-09-25T09:15:26.268Z,12.30
2018-09-25T09:17:53.682Z,12.40
2018-09-25T09:20:21.015Z,12.50
2018-09-25T09:22:48.347Z,12.70
2018-09-25T09:25:15.738Z,12.70
2018-09-25T09:27:42.999Z,13.00
2018-09-25T09:30:10.307Z,13.00
2018-09-25T09:32:37.706Z,13.10
2018-09-25T09:35:04.958Z,13.30
2018-09-25T09:37:32.303Z,13.30
2018-09-25T09:39:59.639Z,13.40
2018-09-25T09:42:26.971Z,13.40
2018-09-25T09:44:54.291Z,13.50
2018-09-25T09:47:21.627Z,13.60
2018-09-25T09:49:48.986Z,13.60
2018-09-25T09:52:16.302Z,13.70
2018-09-25T09:54:43.742Z,13.80
2018-09-25T09:57:11.057Z,13.90
2018-09-25T09:59:38.399Z,13.90
2018-09-25T10:02:05.726Z,14.00
2018-09-25T10:04:33.186Z,14.00
2018-09-25T10:07:00.527Z,14.00
2018-09-25T10:09:27.859Z,14.10
2018-09-25T10:11:55.224Z,14.20
2018-09-25T10:14:22.575Z,14.30
2018-09-25T10:16:49.888Z,14.50
2018-09-25T10:19:17.237Z,14.60
2018-09-25T10:21:44.573Z,14.50
2018-09-25T10:24:11.897Z,14.50
2018-09-25T10:26:39.242Z,14.50
2018-09-25T10:29:06.546Z,14.50
2018-09-25T10:31:33.910Z,14.50
2018-09-25T10:34:01.239Z,14.60
2018-09-25T10:36:28.568Z,14.70
2018-09-25T10:38:55.906Z,14.80
2018-09-25T10:41:23.214Z,14.80
2018-09-25T10:43:50.638Z,14.90
2018-09-25T10:46:17.979Z,14.90
2018-09-25T10:48:45.324Z,14.90
2018-09-25T10:51:12.682Z,14.90
2018-09-25T10:53:40.003Z,14.80
2018-09-25T10:56:07.488Z,14.70
2018-09-25T10:58:34.700Z,14.60
2018-09-25T11:01:02.116Z,14.50
2018-09-25T11:03:29.439Z,14.60
2018-09-25T11:05:56.780Z,14.70
2018-09-25T11:08:24.110Z,14.80
2018-09-25T11:10:51.455Z,14.90
2018-09-25T11:13:18.780Z,15.00
2018-09-25T11:15:46.116Z,15.00
2018-09-25T11:18:13.447Z,15.10
2018-09-25T11:20:40.814Z,15.00
2018-09-25T11:23:08.169Z,15.00
2018-09-25T11:25:35.547Z,15.00
2018-09-25T11:28:02.946Z,15.00
2018-09-25T11:30:30.284Z,15.10
2018-09-25T11:32:57.628Z,15.10
2018-09-25T11:35:24.992Z,15.10
2018-09-25T11:37:52.258Z,15.10
2018-09-25T11:40:19.592Z,15.10
2018-09-25T11:42:46.922Z,15.10
2018-09-25T11:45:14.255Z,15.00
2018-09-25T11:47:41.559Z,15.00
2018-09-25T11:50:08.914Z,15.00
2018-09-25T11:52:36.237Z,15.00
2018-09-25T11:55:03.583Z,15.10
2018-09-25T11:57:30.936Z,15.10
2018-09-25T11:59:58.263Z,15.20
2018-09-25T12:02:25.596Z,15.20
2018-09-25T12:04:52.926Z,15.30
2018-09-25T12:07:20.277Z,15.30
2018-09-25T12:09:47.783Z,15.40
2018-09-25T12:12:15.099Z,15.50
2018-09-25T12:14:42.399Z,15.40
2018-09-25T12:17:09.719Z,15.50
2018-09-25T12:19:37.128Z,15.50
2018-09-25T12:22:04.508Z,15.50
2018-09-25T12:24:31.823Z,15.60
2018-09-25T12:26:59.274Z,15.70
2018-09-25T12:29:26.746Z,15.60
2018-09-25T12:31:55.095Z,15.70
2018-09-25T12:34:22.442Z,15.80
2018-09-25T12:36:49.889Z,15.70
2018-09-25T12:39:17.246Z,15.60
2018-09-25T12:41:44.730Z,15.70
2018-09-25T12:44:12.062Z,15.60
2018-09-25T12:46:39.399Z,15.80
2018-09-25T12:49:06.778Z,15.90
2018-09-25T12:51:34.099Z,15.90
2018-09-25T12:54:01.478Z,15.80
2018-09-25T12:56:28.839Z,15.90
2018-09-25T12:58:56.186Z,15.90
2018-09-25T13:01:23.624Z,15.90
2018-09-25T13:03:51.040Z,15.90
2018-09-25T13:06:18.335Z,15.90
2018-09-25T13:08:45.653Z,16.00
2018-09-25T13:11:12.978Z,16.10
2018-09-25T13:13:40.460Z,16.10
2018-09-25T13:16:07.958Z,16.10
2018-09-25T13:18:35.263Z,16.10
2018-09-25T13:21:02.609Z,16.10
2018-09-25T13:23:30.035Z,16.10
2018-09-25T13:25:57.370Z,16.00
2018-09-25T13:28:24.750Z,16.10
2018-09-25T13:30:52.120Z,16.10
2018-09-25T13:33:19.455Z,16.10
2018-09-25T13:35:46.767Z,16.10
2018-09-25T13:38:14.194Z,16.10
2018-09-25T13:40:41.531Z,16.30
2018-09-25T13:43:08.873Z,16.40
2018-09-25T13:45:36.223Z,16.50
2018-09-25T13:48:03.552Z,16.50
2018-09-25T13:50:30.860Z,16.50
2018-09-25T13:52:58.200Z,16.60
2018-09-25T13:55:25.616Z,16.60
2018-09-25T13:57:52.951Z,16.60
2018-09-25T14:00:20.278Z,16.60
2018-09-25T14:02:48.459Z,16.50
2018-09-25T14:05:15.815Z,16.50
2018-09-25T14:07:43.192Z,16.60
2018-09-25T14:10:10.542Z,16.60
2018-09-25T14:12:37.879Z,16.70
2018-09-25T14:15:05.235Z,16.70
2018-09-25T14:17:32.559Z,16.60
2018-09-25T14:19:59.891Z,16.60
2018-09-25T14:22:27.221Z,16.60
2018-09-25T14:24:54.600Z,16.70
2018-09-25T14:27:21.914Z,16.60
2018-09-25T14:29:49.290Z,16.60
2018-09-25T14:32:16.619Z,16.60
2018-09-25T14:34:44.003Z,16.70
2018-09-25T14:37:11.329Z,16.70
2018-09-25T14:39:38.783Z,16.60
2018-09-25T14:42:06.149Z,16.60
2018-09-25T14:44:33.453Z,16.60
2018-09-25T14:47:00.870Z,16.60
2018-09-25T14:49:28.207Z,16.40
2018-09-25T14:51:55.509Z,16.50
2018-09-25T14:54:22.916Z,16.40
2018-09-25T14:56:50.227Z,16.20
2018-09-25T14:59:17.622Z,16.20
2018-09-25T15:01:44.991Z,16.20
2018-09-25T15:04:12.314Z,16.20
2018-09-25T15:06:39.750Z,16.10
2018-09-25T15:09:07.840Z,16.20
2018-09-25T15:11:35.151Z,16.30
2018-09-25T15:14:02.491Z,16.40
2018-09-25T15:16:29.786Z,16.30
2018-09-25T15:18:57.138Z,16.20
2018-09-25T15:21:24.519Z,16.10
2018-09-25T15:23:51.797Z,16.10
2018-09-25T15:26:19.150Z,16.00
2018-09-25T15:28:46.486Z,16.00
2018-09-25T15:31:13.824Z,16.00
2018-09-25T15:33:41.148Z,16.00
2018-09-25T15:36:08.482Z,16.10
2018-09-25T15:38:36.669Z,16.10
2018-09-25T15:41:04.150Z,16.10
2018-09-25T15:43:31.398Z,16.20
2018-09-25T15:45:58.919Z,16.30
2018-09-25T15:48:26.260Z,16.20
2018-09-25T15:50:53.576Z,16.30
2018-09-25T15:53:21.013Z,16.40
2018-09-25T15:55:48.418Z,16.30
2018-09-25T15:58:15.751Z,16.20
2018-09-25T16:00:43.258Z,16.20
2018-09-25T16:03:10.594Z,16.20
2018-09-25T16:05:37.943Z,16.30
2018-09-25T16:08:05.488Z,16.30
2018-09-25T16:10:32.827Z,16.40
2018-09-25T16:13:00.165Z,16.80
2018-09-25T16:15:27.787Z,17.60
2018-09-25T16:17:56.427Z,18.50
2018-09-25T16:20:23.781Z,19.00
2018-09-25T16:22:51.128Z,19.50
2018-09-25T16:25:18.475Z,19.80
2018-09-25T16:27:45.808Z,19.70
2018-09-25T16:30:13.115Z,19.50
2018-09-25T16:32:40.436Z,19.00
2018-09-25T16:35:07.759Z,18.50
2018-09-25T16:37:35.082Z,18.10
2018-09-25T16:40:02.417Z,17.80
2018-09-25T16:42:29.748Z,17.40
2018-09-25T16:44:57.063Z,17.00
2018-09-25T16:47:24.451Z,16.70
2018-09-25T16:49:51.722Z,16.50
2018-09-25T16:52:19.033Z,16.10
2018-09-25T16:54:46.338Z,15.90
2018-09-25T16:57:13.683Z,15.80
2018-09-25T16:59:41.031Z,15.70
2018-09-25T17:02:08.366Z,15.60
2018-09-25T17:04:35.708Z,15.40
2018-09-25T17:07:03.033Z,15.40
2018-09-25T17:09:30.399Z,15.20
2018-09-25T17:11:57.740Z,15.10
2018-09-25T17:14:25.063Z,15.00
2018-09-25T17:16:52.545Z,14.90
2018-09-25T17:19:19.938Z,14.80
2018-09-25T17:21:47.287Z,14.60
2018-09-25T17:24:14.597Z,14.60
2018-09-25T17:26:42.027Z,14.50
2018-09-25T17:29:09.409Z,14.50
2018-09-25T17:31:36.684Z,14.40
2018-09-25T17:34:04.027Z,14.50
2018-09-25T17:36:31.420Z,14.50
2018-09-25T17:38:58.865Z,14.40
2018-09-25T17:41:26.269Z,14.40
2018-09-25T17:43:53.624Z,14.40
2018-09-25T17:46:20.981Z,14.30
2018-09-25T17:48:48.288Z,14.20
2018-09-25T17:51:15.640Z,14.10
2018-09-25T17:53:42.987Z,14.00
2018-09-25T17:56:10.311Z,13.90
2018-09-25T17:58:37.823Z,13.90
2018-09-25T18:01:05.179Z,13.80
2018-09-25T18:03:32.503Z,13.60
2018-09-25T18:05:59.850Z,13.60
2018-09-25T18:08:27.197Z,13.50
2018-09-25T18:10:54.523Z,13.40
2018-09-25T18:13:21.838Z,13.40
2018-09-25T18:15:49.219Z,13.30
2018-09-25T18:18:16.616Z,13.30
2018-09-25T18:20:45.102Z,13.20
2018-09-25T18:23:12.411Z,13.20
2018-09-25T18:25:39.772Z,13.10
2018-09-25T18:28:07.238Z,13.10
2018-09-25T18:30:34.437Z,13.10
2018-09-25T18:33:01.779Z,13.00
2018-09-25T18:35:29.097Z,12.90
2018-09-25T18:37:56.665Z,12.80
2018-09-25T18:40:23.972Z,12.80
2018-09-25T18:42:51.489Z,12.80
2018-09-25T18:45:18.791Z,12.70
2018-09-25T18:47:46.122Z,12.70
2018-09-25T18:50:13.463Z,12.60
2018-09-25T18:52:40.856Z,12.70
2018-09-25T18:55:08.183Z,12.60
2018-09-25T18:57:35.552Z,12.50
2018-09-25T19:00:03.068Z,12.50
2018-09-25T19:02:30.419Z,12.60
2018-09-25T19:04:57.785Z,12.50
2018-09-25T19:07:25.072Z,12.50
2018-09-25T19:09:52.476Z,12.50
2018-09-25T19:12:19.809Z,12.50
2018-09-25T19:14:47.148Z,12.40
2018-09-25T19:17:14.495Z,12.40
2018-09-25T19:19:41.846Z,12.30
2018-09-25T19:22:09.207Z,12.30
2018-09-25T19:24:36.543Z,12.30
2018-09-25T19:27:03.877Z,12.40
2018-09-25T19:29:31.201Z,12.40
2018-09-25T19:31:58.519Z,12.40
2018-09-25T19:34:25.895Z,12.40
2018-09-25T19:36:53.262Z,12.40
2018-09-25T19:39:20.657Z,12.30
2018-09-25T19:41:47.985Z,12.30
2018-09-25T19:44:15.390Z,12.30
2018-09-25T19:46:42.764Z,12.30
2018-09-25T19:49:10.087Z,12.30
2018-09-25T19:51:37.423Z,12.40
2018-09-25T19:54:04.759Z,12.30
2018-09-25T19:56:32.096Z,12.30
2018-09-25T19:58:59.490Z,12.20
2018-09-25T20:01:26.833Z,12.20
2018-09-25T20:03:54.163Z,12.20
2018-09-25T20:06:21.548Z,12.30
2018-09-25T20:08:48.811Z,12.20
2018-09-25T20:11:16.139Z,12.20
2018-09-25T20:13:43.479Z,12.10
2018-09-25T20:16:10.787Z,12.10
2018-09-25T20:18:38.103Z,12.10
2018-09-25T20:21:05.467Z,11.90
2018-09-25T20:23:32.779Z,11.90
2018-09-25T20:26:00.224Z,11.80
2018-09-25T20:28:27.555Z,11.80
2018-09-25T20:30:54.973Z,11.80
2018-09-25T20:33:22.473Z,11.80
2018-09-25T20:35:50.104Z,11.70
2018-09-25T20:38:17.530Z,11.60
2018-09-25T20:40:44.891Z,11.50
2018-09-25T20:43:12.301Z,11.50
2018-09-25T20:45:39.545Z,11.50
2018-09-25T20:48:06.891Z,11.50
2018-09-25T20:50:34.216Z,11.50
2018-09-25T20:53:01.544Z,11.50
2018-09-25T20:55:28.920Z,11.50
2018-09-25T20:57:56.203Z,11.50
2018-09-25T21:00:23.526Z,11.50
2018-09-25T21:02:50.852Z,11.40
2018-09-25T21:05:18.212Z,11.40
2018-09-25T21:07:45.523Z,11.50
2018-09-25T21:10:13.040Z,11.50
2018-09-25T21:12:40.390Z,11.40
2018-09-25T21:15:07.728Z,11.40
2018-09-25T21:17:35.428Z,11.40
2018-09-25T21:20:02.767Z,11.30
2018-09-25T21:22:30.205Z,11.20
2018-09-25T21:24:57.603Z,11.20
2018-09-25T21:27:25.061Z,11.00
2018-09-25T21:29:52.404Z,11.00
2018-09-25T21:32:19.735Z,10.90
2018-09-25T21:34:47.047Z,10.90
2018-09-25T21:37:14.408Z,10.90
2018-09-25T21:39:41.711Z,10.70
2018-09-25T21:42:09.121Z,10.70
2018-09-25T21:44:36.595Z,10.70
2018-09-25T21:47:03.919Z,10.60
2018-09-25T21:49:31.391Z,10.50
2018-09-25T21:51:58.735Z,10.50
2018-09-25T21:54:26.100Z,10.40
2018-09-25T21:56:53.492Z,10.30
2018-09-25T21:59:20.770Z,10.40
2018-09-25T22:01:48.077Z,10.40
2018-09-25T22:04:15.499Z,10.40
2018-09-25T22:06:42.929Z,10.40
2018-09-25T22:09:10.295Z,10.30
2018-09-25T22:11:37.663Z,10.20
2018-09-25T22:14:04.991Z,10.10
2018-09-25T22:16:32.346Z,9.90
2018-09-25T22:18:59.655Z,9.80
2018-09-25T22:21:27.011Z,9.80
2018-09-25T22:23:54.326Z,9.90
2018-09-25T22:26:21.629Z,9.90
2018-09-25T22:28:48.988Z,10.00
2018-09-25T22:31:16.327Z,9.90
2018-09-25T22:33:43.640Z,10.00
2018-09-25T22:36:11.008Z,9.90
2018-09-25T22:38:38.304Z,9.90
2018-09-25T22:41:12.414Z,9.70
2018-09-25T22:43:39.719Z,9.50
2018-09-25T22:46:07.050Z,9.40
2018-09-25T22:48:34.376Z,9.30
2018-09-25T22:51:01.747Z,9.30
2018-09-25T22:53:29.067Z,9.20
2018-09-25T22:55:56.492Z,9.20
2018-09-25T22:58:24.648Z,9.10
2018-09-25T23:00:51.996Z,9.10
2018-09-25T23:03:19.359Z,9.10
2018-09-25T23:05:46.714Z,9.00
2018-09-25T23:08:14.041Z,8.90
2018-09-25T23:10:41.348Z,8.90
2018-09-25T23:13:08.680Z,8.90
2018-09-25T23:15:36.023Z,8.90
2018-09-25T23:18:03.321Z,8.90
2018-09-25T23:20:30.630Z,8.90
2018-09-25T23:22:57.967Z,9.10
2018-09-25T23:25:25.279Z,9.10
2018-09-25T23:27:52.683Z,9.20
2018-09-25T23:30:20.035Z,9.20
2018-09-25T23:32:47.370Z,9.10
2018-09-25T23:35:14.761Z,8.90
2018-09-25T23:37:42.065Z,8.80
2018-09-25T23:40:09.406Z,8.80
2018-09-25T23:42:36.743Z,8.80
2018-09-25T23:45:04.168Z,8.80
2018-09-25T23:47:31.511Z,8.80
2018-09-25T23:49:58.821Z,8.80
2018-09-25T23:52:26.239Z,8.90
2018-09-25T23:54:53.595Z,8.90
2018-09-25T23:57:20.926Z,8.80
2018-09-25T23:59:48.252Z,8.80
